sensor_id;sensor_type;location;lat;lon;timestamp;P1;durP1;ratioP1;P2;durP2;ratioP2
82292;SDS011;71892;14.836;105.234;2023-12-29T00:00:17;29.30;;;15.50;;
82292;SDS011;71892;14.836;105.234;2023-12-29T00:02:44;30.20;;;16.27;;
82292;SDS011;71892;14.836;105.234;2023-12-29T00:05:10;18.00;;;10.57;;
82292;SDS011;71892;14.836;105.234;2023-12-29T00:07:36;18.08;;;11.00;;
82292;SDS011;71892;14.836;105.234;2023-12-29T00:10:03;14.25;;;8.35;;
82292;SDS011;71892;14.836;105.234;2023-12-29T00:12:29;15.23;;;9.07;;
82292;SDS011;71892;14.836;105.234;2023-12-29T00:14:56;13.63;;;8.40;;
82292;SDS011;71892;14.836;105.234;2023-12-29T00:17:22;15.48;;;8.27;;
82292;SDS011;71892;14.836;105.234;2023-12-29T00:19:48;12.98;;;8.50;;
82292;SDS011;71892;14.836;105.234;2023-12-29T00:22:15;11.55;;;7.13;;
82292;SDS011;71892;14.836;105.234;2023-12-29T00:24:41;13.77;;;6.68;;
82292;SDS011;71892;14.836;105.234;2023-12-29T00:27:15;13.02;;;8.00;;
82292;SDS011;71892;14.836;105.234;2023-12-29T00:29:42;10.63;;;6.30;;
82292;SDS011;71892;14.836;105.234;2023-12-29T00:32:08;9.35;;;6.13;;
82292;SDS011;71892;14.836;105.234;2023-12-29T00:34:34;14.70;;;6.38;;
82292;SDS011;71892;14.836;105.234;2023-12-29T00:37:02;14.73;;;6.63;;
82292;SDS011;71892;14.836;105.234;2023-12-29T00:39:30;11.98;;;6.43;;
82292;SDS011;71892;14.836;105.234;2023-12-29T00:42:06;9.65;;;6.32;;
82292;SDS011;71892;14.836;105.234;2023-12-29T00:44:33;11.13;;;6.35;;
82292;SDS011;71892;14.836;105.234;2023-12-29T00:47:00;10.23;;;6.03;;
82292;SDS011;71892;14.836;105.234;2023-12-29T00:49:26;10.02;;;5.30;;
82292;SDS011;71892;14.836;105.234;2023-12-29T00:51:53;11.27;;;4.30;;
82292;SDS011;71892;14.836;105.234;2023-12-29T00:54:19;9.05;;;5.03;;
82292;SDS011;71892;14.836;105.234;2023-12-29T00:56:51;12.10;;;4.88;;
82292;SDS011;71892;14.836;105.234;2023-12-29T00:59:18;14.20;;;5.82;;
82292;SDS011;71892;14.836;105.234;2023-12-29T01:01:44;12.48;;;5.38;;
82292;SDS011;71892;14.836;105.234;2023-12-29T01:04:10;8.40;;;5.18;;
82292;SDS011;71892;14.836;105.234;2023-12-29T01:06:37;11.25;;;6.10;;
82292;SDS011;71892;14.836;105.234;2023-12-29T01:09:03;8.82;;;4.50;;
82292;SDS011;71892;14.836;105.234;2023-12-29T01:11:29;17.95;;;5.20;;
82292;SDS011;71892;14.836;105.234;2023-12-29T01:13:56;11.88;;;4.97;;
82292;SDS011;71892;14.836;105.234;2023-12-29T01:16:22;13.02;;;5.80;;
82292;SDS011;71892;14.836;105.234;2023-12-29T01:18:48;6.93;;;4.53;;
82292;SDS011;71892;14.836;105.234;2023-12-29T01:21:15;12.45;;;4.40;;
82292;SDS011;71892;14.836;105.234;2023-12-29T01:23:41;8.27;;;4.38;;
82292;SDS011;71892;14.836;105.234;2023-12-29T01:26:07;11.32;;;4.65;;
82292;SDS011;71892;14.836;105.234;2023-12-29T01:28:34;12.70;;;4.93;;
82292;SDS011;71892;14.836;105.234;2023-12-29T01:31:00;12.43;;;4.93;;
82292;SDS011;71892;14.836;105.234;2023-12-29T01:33:26;9.38;;;4.53;;
82292;SDS011;71892;14.836;105.234;2023-12-29T01:35:53;12.73;;;4.65;;
82292;SDS011;71892;14.836;105.234;2023-12-29T01:38:19;6.93;;;4.40;;
82292;SDS011;71892;14.836;105.234;2023-12-29T01:40:45;8.27;;;3.88;;
82292;SDS011;71892;14.836;105.234;2023-12-29T01:43:12;11.45;;;4.75;;
82292;SDS011;71892;14.836;105.234;2023-12-29T01:45:39;9.90;;;4.80;;
82292;SDS011;71892;14.836;105.234;2023-12-29T01:48:05;9.05;;;4.15;;
82292;SDS011;71892;14.836;105.234;2023-12-29T01:50:33;7.50;;;3.95;;
82292;SDS011;71892;14.836;105.234;2023-12-29T01:53:00;7.93;;;4.57;;
82292;SDS011;71892;14.836;105.234;2023-12-29T01:55:28;7.07;;;3.85;;
82292;SDS011;71892;14.836;105.234;2023-12-29T01:57:55;11.73;;;4.82;;
82292;SDS011;71892;14.836;105.234;2023-12-29T02:00:22;11.73;;;4.47;;
82292;SDS011;71892;14.836;105.234;2023-12-29T02:02:49;13.25;;;3.90;;
82292;SDS011;71892;14.836;105.234;2023-12-29T02:05:16;11.02;;;3.90;;
82292;SDS011;71892;14.836;105.234;2023-12-29T02:07:46;9.93;;;3.85;;
82292;SDS011;71892;14.836;105.234;2023-12-29T02:10:14;5.50;;;3.63;;
82292;SDS011;71892;14.836;105.234;2023-12-29T02:12:43;6.35;;;3.38;;
82292;SDS011;71892;14.836;105.234;2023-12-29T02:15:14;16.33;;;4.00;;
82292;SDS011;71892;14.836;105.234;2023-12-29T02:17:51;15.63;;;4.28;;
82292;SDS011;71892;14.836;105.234;2023-12-29T02:20:25;6.35;;;3.35;;
82292;SDS011;71892;14.836;105.234;2023-12-29T02:22:51;6.13;;;3.88;;
82292;SDS011;71892;14.836;105.234;2023-12-29T02:25:18;12.35;;;3.90;;
82292;SDS011;71892;14.836;105.234;2023-12-29T02:30:25;8.30;;;3.70;;
82292;SDS011;71892;14.836;105.234;2023-12-29T02:33:00;9.52;;;3.60;;
82292;SDS011;71892;14.836;105.234;2023-12-29T02:35:32;7.68;;;3.72;;
82292;SDS011;71892;14.836;105.234;2023-12-29T02:38:01;8.23;;;3.70;;
82292;SDS011;71892;14.836;105.234;2023-12-29T02:40:28;6.65;;;3.08;;
82292;SDS011;71892;14.836;105.234;2023-12-29T02:42:54;9.50;;;3.20;;
82292;SDS011;71892;14.836;105.234;2023-12-29T02:45:21;8.65;;;3.70;;
82292;SDS011;71892;14.836;105.234;2023-12-29T02:47:47;9.52;;;3.72;;
82292;SDS011;71892;14.836;105.234;2023-12-29T02:50:14;6.35;;;3.38;;
82292;SDS011;71892;14.836;105.234;2023-12-29T02:52:41;7.90;;;3.60;;
82292;SDS011;71892;14.836;105.234;2023-12-29T02:55:07;12.93;;;4.18;;
82292;SDS011;71892;14.836;105.234;2023-12-29T02:57:34;6.57;;;3.20;;
82292;SDS011;71892;14.836;105.234;2023-12-29T03:00:00;6.45;;;3.53;;
82292;SDS011;71892;14.836;105.234;2023-12-29T03:02:27;7.40;;;3.53;;
82292;SDS011;71892;14.836;105.234;2023-12-29T03:04:53;11.20;;;3.45;;
82292;SDS011;71892;14.836;105.234;2023-12-29T03:07:20;9.45;;;2.90;;
82292;SDS011;71892;14.836;105.234;2023-12-29T03:09:46;6.35;;;2.53;;
82292;SDS011;71892;14.836;105.234;2023-12-29T03:12:12;5.95;;;2.75;;
82292;SDS011;71892;14.836;105.234;2023-12-29T03:14:39;6.53;;;2.67;;
82292;SDS011;71892;14.836;105.234;2023-12-29T03:17:05;6.95;;;3.13;;
82292;SDS011;71892;14.836;105.234;2023-12-29T03:19:31;6.05;;;2.70;;
82292;SDS011;71892;14.836;105.234;2023-12-29T03:22:10;8.20;;;2.75;;
82292;SDS011;71892;14.836;105.234;2023-12-29T03:24:39;7.50;;;3.38;;
82292;SDS011;71892;14.836;105.234;2023-12-29T03:27:08;9.48;;;3.67;;
82292;SDS011;71892;14.836;105.234;2023-12-29T03:29:34;17.40;;;6.25;;
82292;SDS011;71892;14.836;105.234;2023-12-29T03:32:01;6.30;;;2.65;;
82292;SDS011;71892;14.836;105.234;2023-12-29T03:34:27;7.80;;;2.53;;
82292;SDS011;71892;14.836;105.234;2023-12-29T03:36:54;9.35;;;2.42;;
82292;SDS011;71892;14.836;105.234;2023-12-29T03:39:20;13.38;;;2.40;;
82292;SDS011;71892;14.836;105.234;2023-12-29T03:41:47;8.25;;;2.65;;
82292;SDS011;71892;14.836;105.234;2023-12-29T03:44:13;10.10;;;3.00;;
82292;SDS011;71892;14.836;105.234;2023-12-29T03:46:40;6.03;;;2.83;;
82292;SDS011;71892;14.836;105.234;2023-12-29T03:49:07;7.78;;;2.50;;
82292;SDS011;71892;14.836;105.234;2023-12-29T03:51:33;9.90;;;2.90;;
82292;SDS011;71892;14.836;105.234;2023-12-29T03:54:00;8.18;;;2.72;;
82292;SDS011;71892;14.836;105.234;2023-12-29T03:56:26;6.97;;;2.60;;
82292;SDS011;71892;14.836;105.234;2023-12-29T03:58:53;5.93;;;2.40;;
82292;SDS011;71892;14.836;105.234;2023-12-29T04:01:19;8.32;;;3.13;;
82292;SDS011;71892;14.836;105.234;2023-12-29T04:03:46;6.18;;;2.65;;
82292;SDS011;71892;14.836;105.234;2023-12-29T04:06:19;4.35;;;1.92;;
82292;SDS011;71892;14.836;105.234;2023-12-29T04:08:46;5.95;;;2.28;;
82292;SDS011;71892;14.836;105.234;2023-12-29T04:11:12;6.05;;;2.50;;
82292;SDS011;71892;14.836;105.234;2023-12-29T04:13:39;6.85;;;2.40;;
82292;SDS011;71892;14.836;105.234;2023-12-29T04:16:05;10.45;;;2.47;;
82292;SDS011;71892;14.836;105.234;2023-12-29T04:18:32;7.85;;;2.42;;
82292;SDS011;71892;14.836;105.234;2023-12-29T04:20:58;7.82;;;2.85;;
82292;SDS011;71892;14.836;105.234;2023-12-29T04:23:24;9.88;;;2.40;;
82292;SDS011;71892;14.836;105.234;2023-12-29T04:25:51;6.05;;;2.55;;
82292;SDS011;71892;14.836;105.234;2023-12-29T04:28:17;11.00;;;2.65;;
82292;SDS011;71892;14.836;105.234;2023-12-29T04:30:44;9.95;;;3.03;;
82292;SDS011;71892;14.836;105.234;2023-12-29T04:33:10;8.02;;;2.40;;
82292;SDS011;71892;14.836;105.234;2023-12-29T04:35:37;7.90;;;2.67;;
82292;SDS011;71892;14.836;105.234;2023-12-29T04:38:03;5.25;;;2.50;;
82292;SDS011;71892;14.836;105.234;2023-12-29T04:40:31;8.40;;;2.40;;
82292;SDS011;71892;14.836;105.234;2023-12-29T04:42:58;6.22;;;3.00;;
82292;SDS011;71892;14.836;105.234;2023-12-29T04:45:24;9.75;;;2.58;;
82292;SDS011;71892;14.836;105.234;2023-12-29T04:47:51;6.40;;;2.67;;
82292;SDS011;71892;14.836;105.234;2023-12-29T04:50:17;4.97;;;2.28;;
82292;SDS011;71892;14.836;105.234;2023-12-29T04:52:43;6.70;;;2.42;;
82292;SDS011;71892;14.836;105.234;2023-12-29T04:55:10;7.82;;;3.15;;
82292;SDS011;71892;14.836;105.234;2023-12-29T04:57:38;9.32;;;2.42;;
82292;SDS011;71892;14.836;105.234;2023-12-29T05:00:05;5.80;;;2.72;;
82292;SDS011;71892;14.836;105.234;2023-12-29T05:02:32;10.13;;;3.92;;
82292;SDS011;71892;14.836;105.234;2023-12-29T05:04:58;7.85;;;2.42;;
82292;SDS011;71892;14.836;105.234;2023-12-29T05:07:26;5.18;;;2.35;;
82292;SDS011;71892;14.836;105.234;2023-12-29T05:09:53;5.43;;;2.33;;
82292;SDS011;71892;14.836;105.234;2023-12-29T05:12:19;5.45;;;2.15;;
82292;SDS011;71892;14.836;105.234;2023-12-29T05:14:45;5.70;;;2.17;;
82292;SDS011;71892;14.836;105.234;2023-12-29T05:17:12;6.68;;;2.20;;
82292;SDS011;71892;14.836;105.234;2023-12-29T05:19:38;6.82;;;2.30;;
82292;SDS011;71892;14.836;105.234;2023-12-29T05:22:04;5.30;;;1.90;;
82292;SDS011;71892;14.836;105.234;2023-12-29T05:24:31;4.85;;;2.05;;
82292;SDS011;71892;14.836;105.234;2023-12-29T05:26:57;6.28;;;1.95;;
82292;SDS011;71892;14.836;105.234;2023-12-29T05:29:23;7.10;;;1.90;;
82292;SDS011;71892;14.836;105.234;2023-12-29T05:31:50;33.03;;;3.85;;
82292;SDS011;71892;14.836;105.234;2023-12-29T05:34:16;3.40;;;1.60;;
82292;SDS011;71892;14.836;105.234;2023-12-29T05:36:43;5.47;;;1.75;;
82292;SDS011;71892;14.836;105.234;2023-12-29T05:39:09;5.93;;;1.77;;
82292;SDS011;71892;14.836;105.234;2023-12-29T05:41:35;5.30;;;1.90;;
82292;SDS011;71892;14.836;105.234;2023-12-29T05:44:02;5.47;;;2.08;;
82292;SDS011;71892;14.836;105.234;2023-12-29T05:46:28;6.25;;;2.28;;
82292;SDS011;71892;14.836;105.234;2023-12-29T05:48:55;6.05;;;2.22;;
82292;SDS011;71892;14.836;105.234;2023-12-29T05:51:21;8.75;;;2.38;;
82292;SDS011;71892;14.836;105.234;2023-12-29T05:53:49;7.65;;;2.60;;
82292;SDS011;71892;14.836;105.234;2023-12-29T05:56:15;4.75;;;2.47;;
82292;SDS011;71892;14.836;105.234;2023-12-29T05:58:41;4.35;;;2.38;;
82292;SDS011;71892;14.836;105.234;2023-12-29T06:01:08;9.07;;;2.40;;
82292;SDS011;71892;14.836;105.234;2023-12-29T06:03:35;5.00;;;1.88;;
82292;SDS011;71892;14.836;105.234;2023-12-29T06:06:01;5.45;;;2.20;;
82292;SDS011;71892;14.836;105.234;2023-12-29T06:08:28;7.43;;;2.55;;
82292;SDS011;71892;14.836;105.234;2023-12-29T06:10:54;3.72;;;2.08;;
82292;SDS011;71892;14.836;105.234;2023-12-29T06:13:21;7.85;;;2.60;;
82292;SDS011;71892;14.836;105.234;2023-12-29T06:15:48;9.05;;;1.90;;
82292;SDS011;71892;14.836;105.234;2023-12-29T06:18:15;8.20;;;1.90;;
82292;SDS011;71892;14.836;105.234;2023-12-29T06:20:41;9.30;;;2.78;;
82292;SDS011;71892;14.836;105.234;2023-12-29T06:23:08;4.30;;;2.10;;
82292;SDS011;71892;14.836;105.234;2023-12-29T06:25:34;7.53;;;2.17;;
82292;SDS011;71892;14.836;105.234;2023-12-29T06:28:00;4.03;;;2.00;;
82292;SDS011;71892;14.836;105.234;2023-12-29T06:30:29;5.32;;;2.25;;
82292;SDS011;71892;14.836;105.234;2023-12-29T06:32:55;7.28;;;1.90;;
82292;SDS011;71892;14.836;105.234;2023-12-29T06:35:21;4.68;;;2.08;;
82292;SDS011;71892;14.836;105.234;2023-12-29T06:37:48;6.85;;;2.05;;
82292;SDS011;71892;14.836;105.234;2023-12-29T06:40:17;8.32;;;4.57;;
82292;SDS011;71892;14.836;105.234;2023-12-29T06:45:09;6.30;;;2.08;;
82292;SDS011;71892;14.836;105.234;2023-12-29T06:47:36;6.35;;;1.80;;
82292;SDS011;71892;14.836;105.234;2023-12-29T06:50:02;5.32;;;2.00;;
82292;SDS011;71892;14.836;105.234;2023-12-29T06:52:29;5.00;;;2.30;;
82292;SDS011;71892;14.836;105.234;2023-12-29T06:55:00;7.00;;;2.40;;
82292;SDS011;71892;14.836;105.234;2023-12-29T06:57:26;9.15;;;2.25;;
82292;SDS011;71892;14.836;105.234;2023-12-29T06:59:53;4.32;;;1.60;;
82292;SDS011;71892;14.836;105.234;2023-12-29T07:02:19;6.07;;;1.75;;
82292;SDS011;71892;14.836;105.234;2023-12-29T07:04:45;5.38;;;2.00;;
82292;SDS011;71892;14.836;105.234;2023-12-29T07:07:12;6.40;;;1.70;;
82292;SDS011;71892;14.836;105.234;2023-12-29T07:09:38;4.57;;;1.70;;
82292;SDS011;71892;14.836;105.234;2023-12-29T07:12:06;4.88;;;1.98;;
82292;SDS011;71892;14.836;105.234;2023-12-29T07:14:32;8.43;;;2.10;;
82292;SDS011;71892;14.836;105.234;2023-12-29T07:17:01;5.25;;;2.08;;
82292;SDS011;71892;14.836;105.234;2023-12-29T07:19:28;7.85;;;2.00;;
82292;SDS011;71892;14.836;105.234;2023-12-29T07:22:02;4.80;;;1.83;;
82292;SDS011;71892;14.836;105.234;2023-12-29T07:24:33;5.32;;;1.60;;
82292;SDS011;71892;14.836;105.234;2023-12-29T07:27:01;6.63;;;2.25;;
82292;SDS011;71892;14.836;105.234;2023-12-29T07:29:28;7.43;;;2.55;;
82292;SDS011;71892;14.836;105.234;2023-12-29T07:31:54;6.53;;;2.13;;
82292;SDS011;71892;14.836;105.234;2023-12-29T07:34:20;7.35;;;1.80;;
82292;SDS011;71892;14.836;105.234;2023-12-29T07:36:47;4.97;;;1.90;;
82292;SDS011;71892;14.836;105.234;2023-12-29T07:39:14;10.25;;;2.05;;
82292;SDS011;71892;14.836;105.234;2023-12-29T07:41:40;5.72;;;1.70;;
82292;SDS011;71892;14.836;105.234;2023-12-29T07:44:09;3.97;;;1.88;;
82292;SDS011;71892;14.836;105.234;2023-12-29T07:46:37;6.00;;;2.38;;
82292;SDS011;71892;14.836;105.234;2023-12-29T07:49:04;6.93;;;1.80;;
82292;SDS011;71892;14.836;105.234;2023-12-29T07:51:31;5.05;;;1.50;;
82292;SDS011;71892;14.836;105.234;2023-12-29T07:53:57;5.72;;;2.00;;
82292;SDS011;71892;14.836;105.234;2023-12-29T07:56:24;9.45;;;1.83;;
82292;SDS011;71892;14.836;105.234;2023-12-29T07:58:50;4.13;;;1.45;;
82292;SDS011;71892;14.836;105.234;2023-12-29T08:01:17;3.45;;;1.42;;
82292;SDS011;71892;14.836;105.234;2023-12-29T08:03:43;4.93;;;1.27;;
82292;SDS011;71892;14.836;105.234;2023-12-29T08:06:10;9.50;;;2.05;;
82292;SDS011;71892;14.836;105.234;2023-12-29T08:08:38;3.28;;;1.50;;
82292;SDS011;71892;14.836;105.234;2023-12-29T08:11:04;3.50;;;1.42;;
82292;SDS011;71892;14.836;105.234;2023-12-29T08:13:30;4.47;;;1.40;;
82292;SDS011;71892;14.836;105.234;2023-12-29T08:15:57;4.38;;;1.70;;
82292;SDS011;71892;14.836;105.234;2023-12-29T08:18:24;5.68;;;1.40;;
82292;SDS011;71892;14.836;105.234;2023-12-29T08:20:50;4.88;;;1.55;;
82292;SDS011;71892;14.836;105.234;2023-12-29T08:23:17;5.05;;;1.60;;
82292;SDS011;71892;14.836;105.234;2023-12-29T08:25:43;4.13;;;1.70;;
82292;SDS011;71892;14.836;105.234;2023-12-29T08:28:09;5.03;;;1.27;;
82292;SDS011;71892;14.836;105.234;2023-12-29T08:30:36;3.47;;;1.35;;
82292;SDS011;71892;14.836;105.234;2023-12-29T08:33:03;8.32;;;1.20;;
82292;SDS011;71892;14.836;105.234;2023-12-29T08:35:30;5.40;;;1.52;;
82292;SDS011;71892;14.836;105.234;2023-12-29T08:37:56;2.90;;;1.05;;
82292;SDS011;71892;14.836;105.234;2023-12-29T08:40:23;5.40;;;1.30;;
82292;SDS011;71892;14.836;105.234;2023-12-29T08:42:49;4.93;;;1.52;;
82292;SDS011;71892;14.836;105.234;2023-12-29T08:45:16;5.00;;;1.00;;
82292;SDS011;71892;14.836;105.234;2023-12-29T08:47:42;4.38;;;1.23;;
82292;SDS011;71892;14.836;105.234;2023-12-29T08:50:08;6.05;;;1.75;;
82292;SDS011;71892;14.836;105.234;2023-12-29T08:52:35;5.25;;;1.30;;
82292;SDS011;71892;14.836;105.234;2023-12-29T08:55:01;2.80;;;1.23;;
82292;SDS011;71892;14.836;105.234;2023-12-29T08:57:28;16.30;;;2.00;;
82292;SDS011;71892;14.836;105.234;2023-12-29T08:59:56;4.07;;;1.10;;
82292;SDS011;71892;14.836;105.234;2023-12-29T09:02:23;4.55;;;1.27;;
82292;SDS011;71892;14.836;105.234;2023-12-29T09:04:49;5.50;;;1.23;;
82292;SDS011;71892;14.836;105.234;2023-12-29T09:07:16;3.67;;;1.00;;
82292;SDS011;71892;14.836;105.234;2023-12-29T09:09:42;2.10;;;0.80;;
82292;SDS011;71892;14.836;105.234;2023-12-29T09:12:12;3.42;;;0.70;;
82292;SDS011;71892;14.836;105.234;2023-12-29T09:14:39;2.47;;;1.20;;
82292;SDS011;71892;14.836;105.234;2023-12-29T09:17:05;3.42;;;0.90;;
82292;SDS011;71892;14.836;105.234;2023-12-29T09:19:32;2.03;;;0.70;;
82292;SDS011;71892;14.836;105.234;2023-12-29T09:22:01;4.03;;;1.10;;
82292;SDS011;71892;14.836;105.234;2023-12-29T09:24:28;6.80;;;1.05;;
82292;SDS011;71892;14.836;105.234;2023-12-29T09:26:55;7.40;;;1.50;;
82292;SDS011;71892;14.836;105.234;2023-12-29T09:29:21;5.15;;;1.25;;
82292;SDS011;71892;14.836;105.234;2023-12-29T09:31:48;5.15;;;1.20;;
82292;SDS011;71892;14.836;105.234;2023-12-29T09:34:14;2.97;;;1.10;;
82292;SDS011;71892;14.836;105.234;2023-12-29T09:36:41;6.03;;;1.33;;
82292;SDS011;71892;14.836;105.234;2023-12-29T09:39:07;2.50;;;1.05;;
82292;SDS011;71892;14.836;105.234;2023-12-29T09:41:34;3.47;;;1.00;;
82292;SDS011;71892;14.836;105.234;2023-12-29T09:44:05;3.78;;;1.00;;
82292;SDS011;71892;14.836;105.234;2023-12-29T09:46:38;6.75;;;1.20;;
82292;SDS011;71892;14.836;105.234;2023-12-29T09:49:08;4.85;;;1.38;;
82292;SDS011;71892;14.836;105.234;2023-12-29T09:51:36;7.30;;;1.08;;
82292;SDS011;71892;14.836;105.234;2023-12-29T09:54:04;7.43;;;1.50;;
82292;SDS011;71892;14.836;105.234;2023-12-29T09:56:31;5.47;;;1.25;;
82292;SDS011;71892;14.836;105.234;2023-12-29T09:58:57;5.78;;;1.30;;
82292;SDS011;71892;14.836;105.234;2023-12-29T10:01:24;4.40;;;1.70;;
82292;SDS011;71892;14.836;105.234;2023-12-29T10:03:54;4.40;;;1.33;;
82292;SDS011;71892;14.836;105.234;2023-12-29T10:06:23;7.05;;;1.95;;
82292;SDS011;71892;14.836;105.234;2023-12-29T10:08:50;3.20;;;1.30;;
82292;SDS011;71892;14.836;105.234;2023-12-29T10:11:19;6.30;;;1.63;;
82292;SDS011;71892;14.836;105.234;2023-12-29T10:13:49;7.32;;;1.58;;
82292;SDS011;71892;14.836;105.234;2023-12-29T10:21:56;6.10;;;1.50;;
82292;SDS011;71892;14.836;105.234;2023-12-29T10:24:29;12.93;;;1.80;;
82292;SDS011;71892;14.836;105.234;2023-12-29T10:26:56;4.65;;;1.27;;
82292;SDS011;71892;14.836;105.234;2023-12-29T10:29:23;6.32;;;1.33;;
82292;SDS011;71892;14.836;105.234;2023-12-29T10:31:50;11.30;;;3.00;;
82292;SDS011;71892;14.836;105.234;2023-12-29T10:34:20;7.75;;;1.48;;
82292;SDS011;71892;14.836;105.234;2023-12-29T10:37:00;23.05;;;2.47;;
82292;SDS011;71892;14.836;105.234;2023-12-29T10:39:37;5.20;;;1.52;;
82292;SDS011;71892;14.836;105.234;2023-12-29T10:42:06;10.25;;;1.90;;
82292;SDS011;71892;14.836;105.234;2023-12-29T10:44:34;11.25;;;2.13;;
82292;SDS011;71892;14.836;105.234;2023-12-29T10:47:08;9.23;;;2.63;;
82292;SDS011;71892;14.836;105.234;2023-12-29T10:49:36;7.57;;;1.90;;
82292;SDS011;71892;14.836;105.234;2023-12-29T10:52:12;11.10;;;2.13;;
82292;SDS011;71892;14.836;105.234;2023-12-29T10:54:40;18.13;;;2.70;;
82292;SDS011;71892;14.836;105.234;2023-12-29T10:57:10;8.30;;;2.47;;
82292;SDS011;71892;14.836;105.234;2023-12-29T10:59:37;10.43;;;2.28;;
82292;SDS011;71892;14.836;105.234;2023-12-29T11:02:03;8.45;;;2.08;;
82292;SDS011;71892;14.836;105.234;2023-12-29T11:04:30;11.10;;;2.08;;
82292;SDS011;71892;14.836;105.234;2023-12-29T11:06:56;8.45;;;1.83;;
82292;SDS011;71892;14.836;105.234;2023-12-29T11:09:33;6.20;;;2.45;;
82292;SDS011;71892;14.836;105.234;2023-12-29T11:12:00;17.08;;;3.75;;
82292;SDS011;71892;14.836;105.234;2023-12-29T11:14:33;16.63;;;4.95;;
82292;SDS011;71892;14.836;105.234;2023-12-29T11:17:00;19.20;;;9.23;;
82292;SDS011;71892;14.836;105.234;2023-12-29T11:19:27;23.98;;;9.93;;
82292;SDS011;71892;14.836;105.234;2023-12-29T11:21:57;25.35;;;11.38;;
82292;SDS011;71892;14.836;105.234;2023-12-29T11:24:23;20.27;;;8.00;;
82292;SDS011;71892;14.836;105.234;2023-12-29T11:26:50;13.90;;;6.68;;
82292;SDS011;71892;14.836;105.234;2023-12-29T11:29:18;16.23;;;7.68;;
82292;SDS011;71892;14.836;105.234;2023-12-29T11:31:45;14.98;;;8.25;;
82292;SDS011;71892;14.836;105.234;2023-12-29T11:34:18;17.65;;;7.70;;
82292;SDS011;71892;14.836;105.234;2023-12-29T11:36:51;16.75;;;6.65;;
82292;SDS011;71892;14.836;105.234;2023-12-29T11:39:24;13.50;;;5.80;;
82292;SDS011;71892;14.836;105.234;2023-12-29T11:42:17;9.75;;;4.20;;
82292;SDS011;71892;14.836;105.234;2023-12-29T11:44:48;6.28;;;3.00;;
82292;SDS011;71892;14.836;105.234;2023-12-29T11:47:35;14.88;;;4.35;;
82292;SDS011;71892;14.836;105.234;2023-12-29T11:50:03;7.25;;;2.88;;
82292;SDS011;71892;14.836;105.234;2023-12-29T11:52:35;11.68;;;3.08;;
82292;SDS011;71892;14.836;105.234;2023-12-29T11:55:07;17.23;;;7.53;;
82292;SDS011;71892;14.836;105.234;2023-12-29T11:57:34;28.73;;;15.25;;
82292;SDS011;71892;14.836;105.234;2023-12-29T12:00:05;22.15;;;10.48;;
82292;SDS011;71892;14.836;105.234;2023-12-29T12:02:32;24.50;;;12.20;;
82292;SDS011;71892;14.836;105.234;2023-12-29T12:04:58;57.80;;;22.33;;
82292;SDS011;71892;14.836;105.234;2023-12-29T12:09:51;61.30;;;24.30;;
82292;SDS011;71892;14.836;105.234;2023-12-29T12:20:25;36.63;;;14.30;;
82292;SDS011;71892;14.836;105.234;2023-12-29T12:23:00;32.20;;;13.30;;
82292;SDS011;71892;14.836;105.234;2023-12-29T12:25:35;33.47;;;13.18;;
82292;SDS011;71892;14.836;105.234;2023-12-29T12:30:32;25.77;;;11.27;;
82292;SDS011;71892;14.836;105.234;2023-12-29T12:33:02;28.02;;;9.05;;
82292;SDS011;71892;14.836;105.234;2023-12-29T12:35:30;27.20;;;10.35;;
82292;SDS011;71892;14.836;105.234;2023-12-29T12:38:15;23.40;;;9.27;;
82292;SDS011;71892;14.836;105.234;2023-12-29T12:40:52;22.88;;;8.15;;
82292;SDS011;71892;14.836;105.234;2023-12-29T12:43:19;33.30;;;9.43;;
82292;SDS011;71892;14.836;105.234;2023-12-29T12:45:59;25.63;;;8.18;;
82292;SDS011;71892;14.836;105.234;2023-12-29T12:48:35;27.58;;;7.05;;
82292;SDS011;71892;14.836;105.234;2023-12-29T12:51:01;25.90;;;8.00;;
82292;SDS011;71892;14.836;105.234;2023-12-29T12:53:28;26.00;;;8.63;;
82292;SDS011;71892;14.836;105.234;2023-12-29T12:55:55;21.05;;;8.13;;
82292;SDS011;71892;14.836;105.234;2023-12-29T12:58:22;17.27;;;6.75;;
82292;SDS011;71892;14.836;105.234;2023-12-29T13:00:49;27.25;;;7.88;;
82292;SDS011;71892;14.836;105.234;2023-12-29T13:03:16;24.55;;;7.65;;
82292;SDS011;71892;14.836;105.234;2023-12-29T13:05:42;17.30;;;7.07;;
82292;SDS011;71892;14.836;105.234;2023-12-29T13:08:09;24.63;;;6.68;;
82292;SDS011;71892;14.836;105.234;2023-12-29T13:10:40;20.70;;;6.40;;
82292;SDS011;71892;14.836;105.234;2023-12-29T13:13:08;17.00;;;8.18;;
82292;SDS011;71892;14.836;105.234;2023-12-29T13:15:35;30.33;;;7.70;;
82292;SDS011;71892;14.836;105.234;2023-12-29T13:18:11;18.23;;;6.10;;
82292;SDS011;71892;14.836;105.234;2023-12-29T13:20:48;18.80;;;5.80;;
82292;SDS011;71892;14.836;105.234;2023-12-29T13:23:28;13.18;;;5.95;;
82292;SDS011;71892;14.836;105.234;2023-12-29T13:25:56;14.13;;;6.78;;
82292;SDS011;71892;14.836;105.234;2023-12-29T13:28:25;22.00;;;6.65;;
82292;SDS011;71892;14.836;105.234;2023-12-29T13:30:53;14.15;;;5.95;;
82292;SDS011;71892;14.836;105.234;2023-12-29T13:36:35;18.02;;;6.45;;
82292;SDS011;71892;14.836;105.234;2023-12-29T13:39:13;26.88;;;7.30;;
82292;SDS011;71892;14.836;105.234;2023-12-29T13:41:49;12.52;;;6.05;;
82292;SDS011;71892;14.836;105.234;2023-12-29T13:44:17;18.25;;;6.38;;
82292;SDS011;71892;14.836;105.234;2023-12-29T13:46:45;16.02;;;6.40;;
82292;SDS011;71892;14.836;105.234;2023-12-29T13:49:12;16.30;;;6.40;;
82292;SDS011;71892;14.836;105.234;2023-12-29T13:51:40;12.15;;;6.15;;
82292;SDS011;71892;14.836;105.234;2023-12-29T13:54:07;21.15;;;6.55;;
82292;SDS011;71892;14.836;105.234;2023-12-29T13:56:35;14.35;;;5.65;;
82292;SDS011;71892;14.836;105.234;2023-12-29T13:59:01;16.17;;;6.15;;
82292;SDS011;71892;14.836;105.234;2023-12-29T14:01:38;12.57;;;5.93;;
82292;SDS011;71892;14.836;105.234;2023-12-29T14:04:08;15.40;;;6.28;;
82292;SDS011;71892;14.836;105.234;2023-12-29T14:06:40;19.75;;;7.13;;
82292;SDS011;71892;14.836;105.234;2023-12-29T14:09:16;15.75;;;6.85;;
82292;SDS011;71892;14.836;105.234;2023-12-29T14:11:44;15.88;;;5.88;;
82292;SDS011;71892;14.836;105.234;2023-12-29T14:14:11;18.63;;;6.88;;
82292;SDS011;71892;14.836;105.234;2023-12-29T14:16:38;9.93;;;5.75;;
82292;SDS011;71892;14.836;105.234;2023-12-29T14:19:08;14.73;;;5.25;;
82292;SDS011;71892;14.836;105.234;2023-12-29T14:21:35;20.38;;;6.75;;
82292;SDS011;71892;14.836;105.234;2023-12-29T14:24:09;15.55;;;5.70;;
82292;SDS011;71892;14.836;105.234;2023-12-29T14:26:36;11.00;;;4.97;;
82292;SDS011;71892;14.836;105.234;2023-12-29T14:29:10;15.80;;;5.13;;
82292;SDS011;71892;14.836;105.234;2023-12-29T14:31:38;14.82;;;4.22;;
82292;SDS011;71892;14.836;105.234;2023-12-29T14:34:07;13.73;;;4.43;;
82292;SDS011;71892;14.836;105.234;2023-12-29T14:36:34;10.20;;;4.28;;
82292;SDS011;71892;14.836;105.234;2023-12-29T14:39:01;8.88;;;3.78;;
82292;SDS011;71892;14.836;105.234;2023-12-29T14:41:29;6.57;;;3.42;;
82292;SDS011;71892;14.836;105.234;2023-12-29T14:43:56;11.40;;;3.85;;
82292;SDS011;71892;14.836;105.234;2023-12-29T14:46:29;7.15;;;3.58;;